createdAt,value
2023-05-06T00:00:13.355Z,100083.06
2023-05-06T00:00:44.779Z,100073.81
2023-05-06T00:01:16.216Z,100085.22
2023-05-06T00:01:47.591Z,100078.16
2023-05-06T00:02:19.064Z,100086.59
2023-05-06T00:02:50.589Z,100081.16
2023-05-06T00:03:22.084Z,100080.06
2023-05-06T00:03:53.813Z,100078.97
2023-05-06T00:04:25.430Z,100087.13
2023-05-06T00:04:56.963Z,100081.44
2023-05-06T00:05:28.406Z,100086.06
2023-05-06T00:05:59.811Z,100079.25
2023-05-06T00:06:31.267Z,100080.06
2023-05-06T00:07:02.703Z,100080.88
2023-05-06T00:07:34.136Z,100084.16
2023-05-06T00:08:05.610Z,100084.16
2023-05-06T00:08:37.117Z,100084.41
2023-05-06T00:09:08.552Z,100085.25
2023-05-06T00:09:39.911Z,100080.06
2023-05-06T00:10:11.390Z,100076.81
2023-05-06T00:10:42.766Z,100080.06
2023-05-06T00:11:14.260Z,100073.81
2023-05-06T00:11:47.474Z,100074.63
2023-05-06T00:12:18.875Z,100074.38
2023-05-06T00:12:50.356Z,100075.19
2023-05-06T00:13:21.856Z,100070.81
2023-05-06T00:13:53.358Z,100072.47
2023-05-06T00:14:24.780Z,100068.94
2023-05-06T00:14:56.211Z,100073.28
2023-05-06T00:15:28.712Z,100070.28
2023-05-06T00:16:01.568Z,100063.47
2023-05-06T00:16:33.016Z,100068.38
2023-05-06T00:17:04.514Z,100071.66
2023-05-06T00:17:35.934Z,100065.94
2023-05-06T00:18:07.456Z,100065.66
2023-05-06T00:18:39.007Z,100066.22
2023-05-06T00:19:10.430Z,100067.84
2023-05-06T00:19:41.871Z,100066.47
2023-05-06T00:20:13.340Z,100069.19
2023-05-06T00:20:44.871Z,100058.88
2023-05-06T00:21:16.269Z,100055.59
2023-05-06T00:21:47.706Z,100055.59
2023-05-06T00:22:19.114Z,100057.25
2023-05-06T00:22:51.691Z,100054.25
2023-05-06T00:23:23.096Z,100058.06
2023-05-06T00:23:54.585Z,100057.78
2023-05-06T00:24:26.003Z,100048.53
2023-05-06T00:24:57.456Z,100056.16
2023-05-06T00:25:29.082Z,100052.34
2023-05-06T00:26:00.567Z,100052.91
2023-05-06T00:26:32.001Z,100050.97
2023-05-06T00:27:03.391Z,100055.59
2023-05-06T00:27:34.739Z,100052.88
2023-05-06T00:28:06.179Z,100048.25
2023-05-06T00:28:40.096Z,100044.47
2023-05-06T00:29:11.601Z,100052.59
2023-05-06T00:29:43.053Z,100049.63
2023-05-06T00:30:14.475Z,100045.81
2023-05-06T00:30:45.880Z,100048.25
2023-05-06T00:31:17.299Z,100050.16
2023-05-06T00:31:48.727Z,100050.44
2023-05-06T00:32:20.183Z,100041.47
2023-05-06T00:32:51.607Z,100053.72
2023-05-06T00:33:26.232Z,100050.72
2023-05-06T00:33:57.790Z,100053.44
2023-05-06T00:34:31.042Z,100056.69
2023-05-06T00:35:02.504Z,100055.06
2023-05-06T00:35:33.872Z,100048.28
2023-05-06T00:36:05.297Z,100051.25
2023-05-06T00:36:36.691Z,100040.38
2023-05-06T00:37:08.108Z,100049.34
2023-05-06T00:37:41.983Z,100058.06
2023-05-06T00:38:13.510Z,100044.47
2023-05-06T00:38:44.957Z,100043.09
2023-05-06T00:39:16.411Z,100042.81
2023-05-06T00:39:47.910Z,100047.44
2023-05-06T00:40:19.301Z,100047.44
2023-05-06T00:40:50.730Z,100045.53
2023-05-06T00:41:22.176Z,100043.38
2023-05-06T00:41:53.594Z,100040.38
2023-05-06T00:42:25.027Z,100045.56
2023-05-06T00:42:56.416Z,100042.56
2023-05-06T00:43:27.894Z,100046.38
2023-05-06T00:43:59.366Z,100056.16
2023-05-06T00:44:30.764Z,100046.63
2023-05-06T00:45:02.215Z,100046.38
2023-05-06T00:45:33.736Z,100045.28
2023-05-06T00:46:05.245Z,100044.47
2023-05-06T00:46:36.721Z,100050.72
2023-05-06T00:47:08.107Z,100046.38
2023-05-06T00:47:39.532Z,100045.28
2023-05-06T00:48:11.038Z,100048.00
2023-05-06T00:48:42.505Z,100048.81
2023-05-06T00:49:13.971Z,100045.56
2023-05-06T00:49:45.345Z,100045.00
2023-05-06T00:50:16.729Z,100054.25
2023-05-06T00:50:48.118Z,100053.97
2023-05-06T00:51:19.609Z,100039.56
2023-05-06T00:51:51.040Z,100046.09
2023-05-06T00:52:22.476Z,100042.28
2023-05-06T00:52:53.928Z,100041.75
2023-05-06T00:53:25.414Z,100042.56
2023-05-06T00:53:56.905Z,100044.72
2023-05-06T00:54:28.390Z,100049.34
2023-05-06T00:54:59.934Z,100047.19
2023-05-06T00:55:31.401Z,100052.88
2023-05-06T00:56:02.820Z,100044.72
2023-05-06T00:56:34.306Z,100048.28
2023-05-06T00:57:05.728Z,100040.66
2023-05-06T00:57:37.154Z,100042.00
2023-05-06T00:58:08.605Z,100039.84
2023-05-06T00:58:40.033Z,100044.47
2023-05-06T00:59:11.442Z,100044.19
2023-05-06T00:59:42.862Z,100036.84
2023-05-06T01:00:14.321Z,100033.84
2023-05-06T01:00:45.783Z,100036.59
2023-05-06T01:01:17.269Z,100036.31
2023-05-06T01:01:48.832Z,100033.59
2023-05-06T01:02:20.301Z,100031.16
2023-05-06T01:02:51.863Z,100030.88
2023-05-06T01:03:23.431Z,100035.78
2023-05-06T01:03:55.131Z,100036.03
2023-05-06T01:04:26.885Z,100034.41
2023-05-06T01:04:58.304Z,100033.31
2023-05-06T01:05:29.794Z,100036.03
2023-05-06T01:06:01.199Z,100034.69
2023-05-06T01:06:32.605Z,100041.75
2023-05-06T01:07:04.126Z,100037.69
2023-05-06T01:07:35.561Z,100037.69
2023-05-06T01:08:07.005Z,100036.59
2023-05-06T01:08:38.469Z,100028.16
2023-05-06T01:09:09.870Z,100034.69
2023-05-06T01:09:41.363Z,100033.34
2023-05-06T01:10:12.824Z,100037.41
2023-05-06T01:10:44.297Z,100030.34
2023-05-06T01:11:16.054Z,100029.25
2023-05-06T01:11:50.434Z,100038.50
2023-05-06T01:12:21.910Z,100037.69
2023-05-06T01:12:53.413Z,100032.25
2023-05-06T01:13:24.877Z,100031.16
2023-05-06T01:13:56.266Z,100039.59
2023-05-06T01:14:27.720Z,100040.94
2023-05-06T01:14:59.142Z,100039.59
2023-05-06T01:15:30.541Z,100039.84
2023-05-06T01:16:01.950Z,100042.56
2023-05-06T01:16:33.382Z,100043.38
2023-05-06T01:17:04.950Z,100039.84
2023-05-06T01:17:36.475Z,100042.56
2023-05-06T01:18:07.989Z,100038.47
2023-05-06T01:18:39.454Z,100043.41
2023-05-06T01:19:13.415Z,100037.41
2023-05-06T01:19:44.853Z,100045.81
2023-05-06T01:20:16.283Z,100036.88
2023-05-06T01:20:47.753Z,100039.31
2023-05-06T01:21:19.201Z,100041.19
2023-05-06T01:21:50.593Z,100039.84
2023-05-06T01:22:21.982Z,100042.03
2023-05-06T01:22:53.458Z,100038.47
2023-05-06T01:23:24.807Z,100037.94
2023-05-06T01:23:56.249Z,100047.72
2023-05-06T01:24:27.618Z,100036.84
2023-05-06T01:24:59.069Z,100036.31
2023-05-06T01:25:30.491Z,100043.91
2023-05-06T01:26:02.087Z,100041.75
2023-05-06T01:26:33.473Z,100037.94
2023-05-06T01:27:05.005Z,100037.66
2023-05-06T01:27:36.495Z,100040.91
2023-05-06T01:28:07.940Z,100035.75
2023-05-06T01:28:39.387Z,100040.66
2023-05-06T01:29:10.828Z,100043.38
2023-05-06T01:29:42.315Z,100043.66
2023-05-06T01:30:13.749Z,100040.66
2023-05-06T01:30:45.162Z,100044.19
2023-05-06T01:31:16.724Z,100045.00
2023-05-06T01:31:48.218Z,100049.63
2023-05-06T01:32:19.710Z,100048.53
2023-05-06T01:32:51.191Z,100051.25
2023-05-06T01:33:22.669Z,100049.34
2023-05-06T01:33:54.082Z,100048.81
2023-05-06T01:34:25.526Z,100044.47
2023-05-06T01:34:56.950Z,100045.28
2023-05-06T01:35:28.421Z,100052.34
2023-05-06T01:35:59.899Z,100049.91
2023-05-06T01:36:31.310Z,100049.06
2023-05-06T01:38:20.490Z,100043.38
2023-05-06T01:38:51.708Z,100042.81
2023-05-06T01:39:22.878Z,100045.28
2023-05-06T01:39:54.052Z,100045.28
2023-05-06T01:40:25.223Z,100049.63
2023-05-06T01:40:56.402Z,100045.28
2023-05-06T01:41:27.594Z,100045.81
2023-05-06T01:41:58.769Z,100050.44
2023-05-06T01:42:29.970Z,100044.47
2023-05-06T01:43:01.143Z,100048.25
2023-05-06T01:43:32.300Z,100047.44
2023-05-06T01:44:03.479Z,100047.72
2023-05-06T01:44:34.673Z,100039.28
2023-05-06T01:45:05.914Z,100048.81
2023-05-06T01:45:37.117Z,100049.91
2023-05-06T01:46:08.324Z,100046.38
2023-05-06T01:46:39.572Z,100052.34
2023-05-06T01:47:10.799Z,100053.97
2023-05-06T01:47:42.026Z,100045.81
2023-05-06T01:48:13.313Z,100051.78
2023-05-06T01:48:44.549Z,100048.00
2023-05-06T01:49:15.984Z,100045.81
2023-05-06T01:49:47.386Z,100050.44
2023-05-06T01:50:18.794Z,100050.44
2023-05-06T01:50:50.327Z,100054.50
2023-05-06T01:51:21.800Z,100050.44
2023-05-06T01:51:53.248Z,100055.59
2023-05-06T01:52:24.630Z,100053.44
2023-05-06T01:52:56.068Z,100053.16
2023-05-06T01:53:27.505Z,100049.34
2023-05-06T01:53:58.911Z,100051.78
2023-05-06T01:54:30.289Z,100045.28
2023-05-06T01:55:01.837Z,100047.44
2023-05-06T01:55:33.258Z,100043.91
2023-05-06T01:56:04.842Z,100045.53
2023-05-06T01:56:36.321Z,100051.78
2023-05-06T01:57:07.864Z,100047.44
2023-05-06T01:57:39.283Z,100043.66
2023-05-06T01:58:10.707Z,100047.19
2023-05-06T01:58:42.100Z,100043.38
2023-05-06T01:59:13.707Z,100045.53
2023-05-06T01:59:45.146Z,100047.44
2023-05-06T02:00:16.574Z,100050.44
2023-05-06T02:00:48.038Z,100050.16
2023-05-06T02:01:20.003Z,100048.00
2023-05-06T02:01:51.543Z,100047.72
2023-05-06T02:02:23.056Z,100045.28
2023-05-06T02:02:54.613Z,100056.69
2023-05-06T02:03:26.261Z,100054.25
2023-05-06T02:03:57.795Z,100052.59
2023-05-06T02:04:29.552Z,100052.88
2023-05-06T02:05:01.020Z,100048.53
2023-05-06T02:05:32.481Z,100055.06
2023-05-06T02:06:03.893Z,100055.88
2023-05-06T02:06:35.401Z,100055.59
2023-05-06T02:07:07.095Z,100050.16
2023-05-06T02:07:38.593Z,100050.44
2023-05-06T02:08:10.058Z,100050.72
2023-05-06T02:08:41.518Z,100048.81
2023-05-06T02:09:12.930Z,100049.06
2023-05-06T02:09:44.347Z,100054.50
2023-05-06T02:10:15.772Z,100047.44
2023-05-06T02:10:47.201Z,100042.28
2023-05-06T02:11:18.569Z,100048.00
2023-05-06T02:11:49.966Z,100048.00
2023-05-06T02:12:21.496Z,100043.38
2023-05-06T02:12:52.983Z,100049.06
2023-05-06T02:13:24.413Z,100046.63
2023-05-06T02:13:56.022Z,100047.19
2023-05-06T02:14:27.412Z,100049.34
2023-05-06T02:14:58.868Z,100048.25
2023-05-06T02:15:30.324Z,100051.78
2023-05-06T02:16:01.840Z,100049.06
2023-05-06T02:16:33.366Z,100052.88
2023-05-06T02:17:04.844Z,100050.44
2023-05-06T02:17:36.311Z,100047.72
2023-05-06T02:18:07.777Z,100045.00
2023-05-06T02:18:45.052Z,100050.97
2023-05-06T02:19:17.021Z,100054.50
2023-05-06T02:19:48.466Z,100049.06
2023-05-06T02:20:20.054Z,100049.06
2023-05-06T02:20:51.628Z,100046.38
2023-05-06T02:21:23.153Z,100049.63
2023-05-06T02:21:54.578Z,100055.06
2023-05-06T02:22:26.015Z,100058.03
2023-05-06T02:22:57.573Z,100057.50
2023-05-06T02:23:29.085Z,100060.22
2023-05-06T02:24:00.531Z,100053.69
2023-05-06T02:24:31.979Z,100056.16
2023-05-06T02:25:06.373Z,100055.06
2023-05-06T02:25:37.867Z,100059.69
2023-05-06T02:26:09.320Z,100060.50
2023-05-06T02:26:40.715Z,100055.88
2023-05-06T02:27:12.107Z,100063.22
2023-05-06T02:27:43.737Z,100053.16
2023-05-06T02:28:15.405Z,100057.78
2023-05-06T02:28:46.848Z,100058.88
2023-05-06T02:29:18.274Z,100059.69
2023-05-06T02:29:49.721Z,100056.16
2023-05-06T02:30:21.105Z,100056.69
2023-05-06T02:30:52.635Z,100053.16
2023-05-06T02:31:24.074Z,100055.31
2023-05-06T02:31:55.610Z,100057.78
2023-05-06T02:32:27.063Z,100056.97
2023-05-06T02:32:58.508Z,100054.78
2023-05-06T02:33:30.008Z,100056.41
2023-05-06T02:34:01.444Z,100062.41
2023-05-06T02:34:32.895Z,100058.31
2023-05-06T02:35:04.372Z,100058.84
2023-05-06T02:35:35.801Z,100060.50
2023-05-06T02:36:07.226Z,100053.44
2023-05-06T02:36:38.641Z,100051.53
2023-05-06T02:37:10.097Z,100053.97
2023-05-06T02:37:41.524Z,100060.22
2023-05-06T02:38:13.010Z,100052.34
2023-05-06T02:38:44.481Z,100053.69
2023-05-06T02:39:15.896Z,100048.00
2023-05-06T02:39:47.327Z,100055.31
2023-05-06T02:40:18.846Z,100055.06
2023-05-06T02:40:50.251Z,100054.25
2023-05-06T02:41:21.677Z,100045.81
2023-05-06T02:41:53.095Z,100052.06
2023-05-06T02:42:24.509Z,100047.72
2023-05-06T02:42:55.978Z,100051.78
2023-05-06T02:43:27.383Z,100055.06
2023-05-06T02:43:58.862Z,100046.38
2023-05-06T02:44:30.404Z,100044.72
2023-05-06T02:45:01.863Z,100047.72
2023-05-06T02:45:33.331Z,100044.19
2023-05-06T02:46:04.790Z,100049.34
2023-05-06T02:46:36.287Z,100038.75
2023-05-06T02:47:07.725Z,100043.38
2023-05-06T02:47:39.169Z,100046.63
2023-05-06T02:48:10.679Z,100046.38
2023-05-06T02:48:42.088Z,100043.91
2023-05-06T02:49:13.642Z,100041.47
2023-05-06T02:49:45.063Z,100039.03
2023-05-06T02:50:16.494Z,100042.84
2023-05-06T02:50:47.939Z,100044.19
2023-05-06T02:51:19.339Z,100043.09
2023-05-06T02:51:50.877Z,100039.56
2023-05-06T02:52:22.278Z,100043.91
2023-05-06T02:52:53.797Z,100046.09
2023-05-06T02:53:25.214Z,100045.53
2023-05-06T02:53:56.679Z,100039.84
2023-05-06T02:54:28.285Z,100044.72
2023-05-06T02:54:59.761Z,100043.91
2023-05-06T02:55:31.181Z,100045.28
2023-05-06T02:56:02.584Z,100045.81
2023-05-06T02:56:34.002Z,100036.84
2023-05-06T02:57:05.409Z,100041.75
2023-05-06T02:57:36.857Z,100039.84
2023-05-06T02:58:08.276Z,100055.59
2023-05-06T02:58:39.730Z,100046.38
2023-05-06T02:59:11.170Z,100039.84
2023-05-06T02:59:42.655Z,100053.16
2023-05-06T03:00:14.132Z,100045.81
2023-05-06T03:00:45.583Z,100048.53
2023-05-06T03:01:17.083Z,100053.44
2023-05-06T03:01:48.518Z,100053.16
2023-05-06T03:02:19.913Z,100053.16
2023-05-06T03:02:51.348Z,100046.91
2023-05-06T03:03:22.723Z,100053.44
2023-05-06T03:03:54.158Z,100057.22
2023-05-06T03:04:25.645Z,100049.34
2023-05-06T03:04:57.213Z,100055.31
2023-05-06T03:05:28.647Z,100049.34
2023-05-06T03:06:00.063Z,100052.06
2023-05-06T03:06:31.474Z,100050.44
2023-05-06T03:07:02.855Z,100049.63
2023-05-06T03:07:34.351Z,100050.97
2023-05-06T03:08:05.765Z,100050.72
2023-05-06T03:08:37.196Z,100052.63
2023-05-06T03:09:08.650Z,100046.91
2023-05-06T03:09:40.158Z,100047.44
2023-05-06T03:10:11.735Z,100046.91
2023-05-06T03:10:43.164Z,100049.06
2023-05-06T03:11:14.646Z,100048.53
2023-05-06T03:11:46.062Z,100050.72
2023-05-06T03:12:17.458Z,100055.06
2023-05-06T03:12:48.930Z,100045.28
2023-05-06T03:13:20.523Z,100052.34
2023-05-06T03:13:52.032Z,100049.63
2023-05-06T03:14:23.428Z,100046.91
2023-05-06T03:14:54.848Z,100051.53
2023-05-06T03:15:26.313Z,100054.50
2023-05-06T03:15:57.760Z,100040.66
2023-05-06T03:16:29.508Z,100049.34
2023-05-06T03:17:01.017Z,100052.59
2023-05-06T03:17:32.569Z,100056.16
2023-05-06T03:18:04.025Z,100054.50
2023-05-06T03:18:35.459Z,100052.88
2023-05-06T03:19:06.872Z,100055.31
2023-05-06T03:19:38.272Z,100055.59
2023-05-06T03:20:09.753Z,100054.50
2023-05-06T03:20:41.241Z,100053.44
2023-05-06T03:21:12.717Z,100061.84
2023-05-06T03:21:44.283Z,100058.59
2023-05-06T03:22:15.777Z,100064.03
2023-05-06T03:22:47.172Z,100058.03
2023-05-06T03:23:18.552Z,100052.06
2023-05-06T03:23:49.953Z,100061.59
2023-05-06T03:24:21.434Z,100062.66
2023-05-06T03:24:52.906Z,100058.03
2023-05-06T03:25:24.416Z,100059.69
2023-05-06T03:25:55.868Z,100056.16
2023-05-06T03:26:27.312Z,100059.13
2023-05-06T03:26:58.782Z,100058.31
2023-05-06T03:27:30.229Z,100058.59
2023-05-06T03:28:01.649Z,100053.97
2023-05-06T03:28:33.053Z,100057.22
2023-05-06T03:29:04.490Z,100062.13
2023-05-06T03:29:35.974Z,100052.88
2023-05-06T03:30:07.418Z,100058.03
2023-05-06T03:30:38.810Z,100062.94
2023-05-06T03:31:10.344Z,100057.22
2023-05-06T03:31:41.888Z,100050.16
2023-05-06T03:32:13.401Z,100051.25
2023-05-06T03:32:45.115Z,100049.63
2023-05-06T03:33:16.549Z,100055.88
2023-05-06T03:33:47.955Z,100055.06
2023-05-06T03:34:19.355Z,100050.16
2023-05-06T03:34:50.759Z,100056.41
2023-05-06T03:35:22.171Z,100051.78
2023-05-06T03:35:53.566Z,100055.06
2023-05-06T03:36:25.168Z,100050.72
2023-05-06T03:36:56.608Z,100053.44
2023-05-06T03:37:28.051Z,100058.03
2023-05-06T03:37:59.521Z,100049.91
2023-05-06T03:38:31.054Z,100049.91
2023-05-06T03:39:02.458Z,100057.50
2023-05-06T03:39:33.864Z,100056.41
2023-05-06T03:40:05.290Z,100053.97
2023-05-06T03:40:36.795Z,100055.59
2023-05-06T03:41:08.180Z,100050.16
2023-05-06T03:41:39.645Z,100056.16
2023-05-06T03:42:11.096Z,100056.97
2023-05-06T03:42:42.525Z,100062.66
2023-05-06T03:43:13.918Z,100059.41
2023-05-06T03:43:45.353Z,100060.50
2023-05-06T03:44:16.770Z,100052.06
2023-05-06T03:44:48.169Z,100058.03
2023-05-06T03:45:19.657Z,100056.69
2023-05-06T03:45:51.119Z,100062.41
2023-05-06T03:46:22.603Z,100059.69
2023-05-06T03:46:54.163Z,100063.47
2023-05-06T03:47:25.689Z,100058.03
2023-05-06T03:47:58.462Z,100056.69
2023-05-06T03:48:30.194Z,100062.38
2023-05-06T03:49:01.645Z,100067.81
2023-05-06T03:49:33.016Z,100059.41
2023-05-06T03:50:04.420Z,100056.97
2023-05-06T03:50:35.818Z,100056.41
2023-05-06T03:51:07.345Z,100063.22
2023-05-06T03:51:38.806Z,100066.19
2023-05-06T03:52:10.336Z,100061.31
2023-05-06T03:52:41.840Z,100064.56
2023-05-06T03:53:13.292Z,100063.75
2023-05-06T03:53:44.708Z,100057.78
2023-05-06T03:54:16.110Z,100058.31
2023-05-06T03:54:47.509Z,100059.94
2023-05-06T03:55:18.986Z,100064.84
2023-05-06T03:55:50.418Z,100059.13
2023-05-06T03:56:21.931Z,100064.56
2023-05-06T03:56:53.306Z,100065.66
2023-05-06T03:57:24.791Z,100064.03
2023-05-06T03:57:56.282Z,100068.09
2023-05-06T03:58:27.708Z,100065.13
2023-05-06T03:58:59.194Z,100064.84
2023-05-06T03:59:30.599Z,100061.84
2023-05-06T04:00:02.106Z,100060.22
2023-05-06T04:00:33.522Z,100062.13
2023-05-06T04:01:04.935Z,100062.41
2023-05-06T04:01:36.366Z,100062.41
2023-05-06T04:02:07.822Z,100062.41
2023-05-06T04:02:39.442Z,100058.03
2023-05-06T04:03:11.022Z,100061.31
2023-05-06T04:03:42.553Z,100060.22
2023-05-06T04:04:14.186Z,100063.22
2023-05-06T04:04:45.645Z,100064.56
2023-05-06T04:05:16.998Z,100062.66
2023-05-06T04:05:48.430Z,100065.66
2023-05-06T04:06:19.867Z,100061.59
2023-05-06T04:06:51.286Z,100064.84
2023-05-06T04:07:22.780Z,100057.78
2023-05-06T04:07:54.252Z,100061.59
2023-05-06T04:08:25.735Z,100064.28
2023-05-06T04:08:57.135Z,100068.38
2023-05-06T04:09:28.650Z,100064.28
2023-05-06T04:10:00.051Z,100066.75
2023-05-06T04:10:31.485Z,100067.84
2023-05-06T04:11:02.915Z,100061.59
2023-05-06T04:11:34.352Z,100070.53
2023-05-06T04:12:05.844Z,100065.66
2023-05-06T04:12:37.378Z,100064.56
2023-05-06T04:13:08.914Z,100061.31
2023-05-06T04:13:40.363Z,100063.22
2023-05-06T04:14:11.838Z,100067.84
2023-05-06T04:14:43.324Z,100062.66
2023-05-06T04:15:14.739Z,100065.13
2023-05-06T04:15:46.129Z,100069.47
2023-05-06T04:16:17.546Z,100067.56
2023-05-06T04:16:48.933Z,100066.19
2023-05-06T04:17:20.339Z,100065.38
2023-05-06T04:17:51.763Z,100067.00
2023-05-06T04:18:23.264Z,100070.81
2023-05-06T04:18:54.716Z,100073.00
2023-05-06T04:19:26.149Z,100067.56
2023-05-06T04:19:57.565Z,100077.06
2023-05-06T04:20:28.957Z,100075.72
2023-05-06T04:21:00.474Z,100072.44
2023-05-06T04:21:31.880Z,100077.34
2023-05-06T04:22:03.384Z,100068.66
2023-05-06T04:22:34.821Z,100073.25
2023-05-06T04:23:06.219Z,100067.00
2023-05-06T04:23:37.658Z,100072.44
2023-05-06T04:24:10.987Z,100073.00
2023-05-06T04:24:42.400Z,100074.63
2023-05-06T04:25:13.825Z,100074.06
2023-05-06T04:25:45.279Z,100071.09
2023-05-06T04:26:16.749Z,100072.97
2023-05-06T04:26:48.164Z,100075.97
2023-05-06T04:27:19.581Z,100077.59
2023-05-06T04:27:50.990Z,100073.53
2023-05-06T04:28:22.441Z,100074.63
2023-05-06T04:28:53.867Z,100073.25
2023-05-06T04:29:25.306Z,100074.06
2023-05-06T04:29:56.837Z,100072.44
2023-05-06T04:30:28.325Z,100075.44
2023-05-06T04:30:59.779Z,100068.09
2023-05-06T04:31:31.233Z,100070.28
2023-05-06T04:32:02.789Z,100069.19
2023-05-06T04:32:34.402Z,100068.09
2023-05-06T04:33:06.089Z,100070.81
2023-05-06T04:33:37.652Z,100072.16
2023-05-06T04:34:09.069Z,100073.00
2023-05-06T04:34:40.516Z,100074.34
2023-05-06T04:35:12.150Z,100067.00
2023-05-06T04:35:43.834Z,100074.34
2023-05-06T04:36:15.370Z,100068.63
2023-05-06T04:36:49.841Z,100071.91
2023-05-06T04:37:21.252Z,100070.00
2023-05-06T04:37:52.703Z,100076.78
2023-05-06T04:38:24.094Z,100068.38
2023-05-06T04:38:55.511Z,100075.16
2023-05-06T04:39:26.896Z,100077.34
2023-05-06T04:39:58.359Z,100077.31
2023-05-06T04:40:29.779Z,100074.34
2023-05-06T04:41:01.216Z,100075.69
2023-05-06T04:41:32.800Z,100073.81
2023-05-06T04:42:04.221Z,100073.53
2023-05-06T04:42:35.634Z,100069.72
2023-05-06T04:43:07.074Z,100073.53
2023-05-06T04:43:38.536Z,100078.69
2023-05-06T04:44:09.941Z,100074.34
2023-05-06T04:44:41.374Z,100070.53
2023-05-06T04:45:12.808Z,100073.81
2023-05-06T04:45:44.239Z,100068.63
2023-05-06T04:46:15.798Z,100071.91
2023-05-06T04:46:47.357Z,100067.28
2023-05-06T04:47:18.782Z,100070.28
2023-05-06T04:47:50.246Z,100074.63
2023-05-06T04:48:21.698Z,100070.00
2023-05-06T04:48:53.106Z,100070.28
2023-05-06T04:49:24.531Z,100061.31
2023-05-06T04:49:56.033Z,100065.66
2023-05-06T04:50:27.444Z,100068.09
2023-05-06T04:50:58.853Z,100069.72
2023-05-06T04:51:30.352Z,100065.66
2023-05-06T04:52:01.759Z,100068.38
2023-05-06T04:52:33.204Z,100064.56
2023-05-06T04:53:04.639Z,100065.94
2023-05-06T04:53:36.107Z,100073.53
2023-05-06T04:54:07.643Z,100066.72
2023-05-06T04:54:39.096Z,100068.91
2023-05-06T04:55:10.701Z,100067.28
2023-05-06T04:55:42.261Z,100071.34
2023-05-06T04:56:13.680Z,100073.78
2023-05-06T04:56:45.119Z,100074.06
2023-05-06T04:57:16.535Z,100077.31
2023-05-06T04:57:47.978Z,100069.19
2023-05-06T04:58:19.441Z,100080.06
2023-05-06T04:58:50.829Z,100078.97
2023-05-06T04:59:22.252Z,100085.22
2023-05-06T04:59:53.661Z,100079.50
2023-05-06T05:00:25.076Z,100075.16
2023-05-06T05:00:56.534Z,100080.03
2023-05-06T05:01:27.985Z,100074.59
2023-05-06T05:01:59.567Z,100079.22
2023-05-06T05:02:31.134Z,100087.13
2023-05-06T05:03:02.711Z,100085.75
2023-05-06T05:03:34.341Z,100082.50
2023-05-06T05:04:05.801Z,100081.94
2023-05-06T05:04:37.192Z,100087.09
2023-05-06T05:05:09.029Z,100088.75
2023-05-06T05:05:40.705Z,100083.03
2023-05-06T05:06:12.120Z,100084.94
2023-05-06T05:06:43.746Z,100082.22
2023-05-06T05:07:15.151Z,100088.19
2023-05-06T05:07:46.566Z,100087.13
2023-05-06T05:08:18.029Z,100090.38
2023-05-06T05:08:49.478Z,100087.91
2023-05-06T05:09:20.967Z,100080.84
2023-05-06T05:09:52.404Z,100086.28
2023-05-06T05:10:23.912Z,100087.91
2023-05-06T05:10:55.341Z,100081.66
2023-05-06T05:11:26.755Z,100084.66
2023-05-06T05:11:58.236Z,100086.84
2023-05-06T05:12:29.707Z,100085.75
2023-05-06T05:13:01.241Z,100085.47
2023-05-06T05:13:32.687Z,100093.63
2023-05-06T05:14:04.127Z,100091.47
2023-05-06T05:14:35.554Z,100087.38
2023-05-06T05:15:07.102Z,100089.28
2023-05-06T05:15:38.682Z,100086.84
2023-05-06T05:16:10.102Z,100085.75
2023-05-06T05:16:41.605Z,100087.09
2023-05-06T05:17:13.127Z,100086.28
2023-05-06T05:17:44.710Z,100094.44
2023-05-06T05:18:16.141Z,100089.31
2023-05-06T05:18:47.556Z,100090.09
2023-05-06T05:19:19.194Z,100095.25
2023-05-06T05:19:50.643Z,100096.06
2023-05-06T05:20:22.057Z,100095.25
2023-05-06T05:20:53.521Z,100097.16
2023-05-06T05:21:24.973Z,100098.25
2023-05-06T05:21:56.460Z,100094.16
2023-05-06T05:22:27.889Z,100099.06
2023-05-06T05:22:59.293Z,100095.25
2023-05-06T05:23:30.759Z,100091.72
2023-05-06T05:24:02.208Z,100096.88
2023-05-06T05:24:33.692Z,100100.41
2023-05-06T05:25:07.507Z,100093.06
2023-05-06T05:25:39.557Z,100095.00
2023-05-06T05:26:10.965Z,100099.06
2023-05-06T05:26:42.380Z,100097.69
2023-05-06T05:27:13.843Z,100100.16
2023-05-06T05:27:45.272Z,100100.69
2023-05-06T05:28:16.701Z,100103.41
2023-05-06T05:28:48.098Z,100097.97
2023-05-06T05:29:19.677Z,100099.06
2023-05-06T05:29:51.125Z,100098.53
2023-05-06T05:30:22.558Z,100096.34
2023-05-06T05:30:54.046Z,100099.06
2023-05-06T05:31:25.535Z,100096.06
2023-05-06T05:31:57.012Z,100096.06
2023-05-06T05:32:28.595Z,100106.41
2023-05-06T05:33:00.196Z,100104.50
2023-05-06T05:33:31.784Z,100100.16
2023-05-06T05:34:03.235Z,100106.94
2023-05-06T05:34:34.718Z,100104.50
2023-05-06T05:35:06.279Z,100102.31
2023-05-06T05:35:37.710Z,100101.50
2023-05-06T05:36:09.107Z,100110.47
2023-05-06T05:36:40.626Z,100105.59
2023-05-06T05:37:12.023Z,100113.19
2023-05-06T05:37:43.604Z,100108.03
2023-05-06T05:38:15.334Z,100107.75
2023-05-06T05:38:46.731Z,100108.84
2023-05-06T05:39:18.141Z,100107.75
2023-05-06T05:39:49.599Z,100106.13
2023-05-06T05:40:21.036Z,100106.69
2023-05-06T05:40:52.562Z,100108.56
2023-05-06T05:41:23.995Z,100105.84
2023-05-06T05:41:55.421Z,100119.44
2023-05-06T05:42:26.827Z,100119.97
2023-05-06T05:42:58.248Z,100108.84
2023-05-06T05:43:29.709Z,100125.69
2023-05-06T05:44:01.111Z,100110.75
2023-05-06T05:44:32.528Z,100111.00
2023-05-06T05:45:04.136Z,100112.91
2023-05-06T05:45:35.556Z,100118.06
2023-05-06T05:46:06.964Z,100112.66
2023-05-06T05:46:38.420Z,100115.38
2023-05-06T05:47:09.890Z,100117.00
2023-05-06T05:47:41.373Z,100123.25
2023-05-06T05:48:12.837Z,100125.41
2023-05-06T05:48:44.319Z,100111.84
2023-05-06T05:49:15.719Z,100120.78
2023-05-06T05:49:47.246Z,100120.78
2023-05-06T05:50:18.732Z,100120.53
2023-05-06T05:50:50.208Z,100119.97
2023-05-06T05:51:21.630Z,100121.06
2023-05-06T05:51:53.043Z,100118.91
2023-05-06T05:52:24.464Z,100117.53
2023-05-06T05:52:55.980Z,100117.00
2023-05-06T05:53:27.450Z,100109.94
2023-05-06T05:53:58.867Z,100116.47
2023-05-06T05:54:30.308Z,100114.28
2023-05-06T05:55:01.751Z,100107.22
2023-05-06T05:55:33.220Z,100108.03
2023-05-06T05:56:04.787Z,100111.56
2023-05-06T05:56:36.226Z,100113.22
2023-05-06T05:57:07.614Z,100111.56
2023-05-06T05:57:39.016Z,100112.13
2023-05-06T05:58:10.404Z,100114.84
2023-05-06T05:58:41.808Z,100113.75
2023-05-06T05:59:13.257Z,100110.50
2023-05-06T05:59:44.718Z,100113.75
2023-05-06T06:00:16.241Z,100106.69
2023-05-06T06:00:47.724Z,100111.03